createdAt,value
2019-03-23T20:40:48.971Z,5.21
2019-03-23T20:43:19.344Z,5.05
2019-03-23T20:45:48.587Z,4.83
2019-03-23T20:48:17.959Z,4.70
2019-03-23T20:50:46.969Z,4.73
2019-03-23T20:53:16.576Z,4.73
2019-03-23T20:55:45.267Z,4.58
2019-03-23T20:58:13.752Z,4.40
2019-03-23T21:00:41.804Z,4.14
2019-03-23T21:03:09.690Z,4.07
2019-03-23T21:05:37.640Z,4.08
2019-03-23T21:08:06.148Z,4.26
2019-03-23T21:10:35.042Z,4.22
2019-03-23T21:13:04.175Z,4.33
2019-03-23T21:15:32.290Z,4.41
2019-03-23T21:18:00.578Z,4.42
2019-03-23T21:20:32.008Z,4.25
2019-03-23T21:22:59.914Z,4.32
2019-03-23T21:25:29.670Z,4.42
2019-03-23T21:27:58.663Z,4.39
2019-03-23T21:30:28.149Z,4.39
2019-03-23T21:32:57.207Z,4.30
2019-03-23T21:35:26.655Z,4.20
2019-03-23T21:37:55.775Z,4.03
2019-03-23T21:40:25.369Z,3.99
2019-03-23T21:42:53.379Z,3.91
2019-03-23T21:45:21.412Z,3.88
2019-03-23T21:47:49.143Z,3.90
2019-03-23T21:50:18.157Z,3.69
2019-03-23T21:52:46.566Z,3.56
2019-03-23T21:55:15.067Z,3.53
2019-03-23T21:57:43.091Z,3.54
2019-03-23T22:00:19.395Z,3.54
2019-03-23T22:02:47.103Z,3.55
2019-03-23T22:05:16.123Z,3.47
2019-03-23T22:07:43.862Z,3.43
2019-03-23T22:10:11.769Z,3.40
2019-03-23T22:12:40.645Z,3.28
2019-03-23T22:15:08.945Z,3.32
2019-03-23T22:17:36.901Z,3.29
2019-03-23T22:20:06.720Z,3.40
2019-03-23T22:22:34.924Z,3.63
2019-03-23T22:25:02.971Z,3.38
2019-03-23T22:27:31.218Z,3.28
2019-03-23T22:30:00.591Z,3.29
2019-03-23T22:32:29.316Z,3.36
2019-03-23T22:34:57.433Z,3.31
2019-03-23T22:37:26.351Z,3.26
2019-03-23T22:39:54.467Z,3.21
2019-03-23T22:42:23.606Z,3.06
2019-03-23T22:44:52.682Z,3.04
2019-03-23T22:47:21.008Z,3.01
2019-03-23T22:49:49.699Z,2.89
2019-03-23T22:52:17.773Z,2.95
2019-03-23T22:54:46.297Z,2.81
2019-03-23T22:57:14.311Z,2.63
2019-03-23T22:59:43.019Z,2.57
2019-03-23T23:02:11.174Z,2.64
2019-03-23T23:04:39.093Z,2.72
2019-03-23T23:07:07.945Z,2.68
2019-03-23T23:09:37.302Z,2.73
2019-03-23T23:12:07.205Z,2.66
2019-03-23T23:14:35.774Z,2.56
2019-03-23T23:17:03.921Z,2.45
2019-03-23T23:19:31.663Z,2.33
2019-03-23T23:22:00.043Z,2.30
2019-03-23T23:24:28.139Z,2.24
2019-03-23T23:26:55.990Z,2.23
2019-03-23T23:29:25.044Z,2.40
2019-03-23T23:31:53.554Z,2.36
2019-03-23T23:34:22.028Z,2.22
2019-03-23T23:36:50.119Z,2.14
2019-03-23T23:39:19.959Z,2.16
2019-03-23T23:41:48.381Z,2.19
2019-03-23T23:44:17.611Z,2.09
2019-03-23T23:46:45.983Z,2.20
2019-03-23T23:49:14.067Z,2.27
2019-03-23T23:51:49.747Z,2.27
2019-03-23T23:54:11.983Z,2.22
2019-03-23T23:56:40.042Z,2.11
2019-03-23T23:59:08.308Z,2.10
